sensor_id;sensor_type;location;lat;lon;timestamp;pressure;altitude;pressure_sealevel;temperature;humidity
63654;BME280;49809;47.418;19.080;2023-06-19T00:00:00;100414.06;;;15.99;89.83
63654;BME280;49809;47.418;19.080;2023-06-19T00:03:28;100429.31;;;15.98;90.11
63654;BME280;49809;47.418;19.080;2023-06-19T00:07:03;100419.41;;;15.99;90.49
63654;BME280;49809;47.418;19.080;2023-06-19T00:10:40;100415.91;;;16.03;90.45
63654;BME280;49809;47.418;19.080;2023-06-19T00:14:12;100414.06;;;15.99;91.17
63654;BME280;49809;47.418;19.080;2023-06-19T00:17:36;100418.12;;;15.96;91.36
63654;BME280;49809;47.418;19.080;2023-06-19T00:21:12;100422.94;;;15.94;91.27
63654;BME280;49809;47.418;19.080;2023-06-19T00:24:33;100409.59;;;15.94;91.36
63654;BME280;49809;47.418;19.080;2023-06-19T00:28:01;100421.13;;;15.90;91.45
63654;BME280;49809;47.418;19.080;2023-06-19T00:31:35;100416.09;;;15.83;91.74
63654;BME280;49809;47.418;19.080;2023-06-19T00:35:11;100419.87;;;15.82;92.68
63654;BME280;49809;47.418;19.080;2023-06-19T00:38:30;100413.50;;;15.78;93.29
63654;BME280;49809;47.418;19.080;2023-06-19T00:42:10;100416.25;;;15.73;93.88
63654;BME280;49809;47.418;19.080;2023-06-19T00:45:46;100415.12;;;15.74;93.94
63654;BME280;49809;47.418;19.080;2023-06-19T00:49:04;100421.56;;;15.73;94.31
63654;BME280;49809;47.418;19.080;2023-06-19T00:52:39;100414.66;;;15.72;94.58
63654;BME280;49809;47.418;19.080;2023-06-19T00:56:12;100410.16;;;15.68;94.38
63654;BME280;49809;47.418;19.080;2023-06-19T00:59:39;100405.41;;;15.59;94.08
63654;BME280;49809;47.418;19.080;2023-06-19T01:02:59;100407.22;;;15.64;94.68
63654;BME280;49809;47.418;19.080;2023-06-19T01:06:43;100412.56;;;15.64;94.42
63654;BME280;49809;47.418;19.080;2023-06-19T01:10:13;100411.09;;;15.53;94.74
63654;BME280;49809;47.418;19.080;2023-06-19T01:13:50;100408.47;;;15.43;94.38
63654;BME280;49809;47.418;19.080;2023-06-19T01:17:21;100406.34;;;15.40;94.40
63654;BME280;49809;47.418;19.080;2023-06-19T01:20:56;100408.84;;;15.31;93.70
63654;BME280;49809;47.418;19.080;2023-06-19T01:24:36;100402.25;;;15.23;93.90
63654;BME280;49809;47.418;19.080;2023-06-19T01:28:12;100410.25;;;15.23;94.02
63654;BME280;49809;47.418;19.080;2023-06-19T01:31:42;100401.72;;;15.21;93.73
63654;BME280;49809;47.418;19.080;2023-06-19T01:35:33;100406.81;;;15.18;93.61
63654;BME280;49809;47.418;19.080;2023-06-19T01:39:23;100395.88;;;15.19;94.60
63654;BME280;49809;47.418;19.080;2023-06-19T01:43:01;100390.06;;;15.12;93.94
63654;BME280;49809;47.418;19.080;2023-06-19T01:46:19;100385.00;;;15.11;94.10
63654;BME280;49809;47.418;19.080;2023-06-19T01:49:52;100383.13;;;15.11;94.30
63654;BME280;49809;47.418;19.080;2023-06-19T01:53:10;100379.19;;;15.04;93.88
63654;BME280;49809;47.418;19.080;2023-06-19T01:56:42;100382.16;;;14.97;94.22
63654;BME280;49809;47.418;19.080;2023-06-19T02:00:18;100375.50;;;15.00;95.35
63654;BME280;49809;47.418;19.080;2023-06-19T02:03:56;100384.00;;;15.02;96.68
63654;BME280;49809;47.418;19.080;2023-06-19T02:07:18;100386.97;;;15.00;97.27
63654;BME280;49809;47.418;19.080;2023-06-19T02:10:50;100379.22;;;14.99;97.42
63654;BME280;49809;47.418;19.080;2023-06-19T02:13:54;100371.75;;;15.01;96.91
63654;BME280;49809;47.418;19.080;2023-06-19T02:17:29;100377.38;;;14.99;96.18
63654;BME280;49809;47.418;19.080;2023-06-19T02:21:05;100380.03;;;14.99;95.85
63654;BME280;49809;47.418;19.080;2023-06-19T02:24:36;100389.66;;;14.95;95.16
63654;BME280;49809;47.418;19.080;2023-06-19T02:28:15;100391.75;;;14.98;96.15
63654;BME280;49809;47.418;19.080;2023-06-19T02:32:02;100397.66;;;14.95;95.58
63654;BME280;49809;47.418;19.080;2023-06-19T02:35:39;100396.59;;;14.91;95.01
63654;BME280;49809;47.418;19.080;2023-06-19T02:39:17;100396.09;;;14.89;94.96
63654;BME280;49809;47.418;19.080;2023-06-19T02:42:52;100395.31;;;14.84;94.69
63654;BME280;49809;47.418;19.080;2023-06-19T02:46:21;100395.28;;;14.89;94.85
63654;BME280;49809;47.418;19.080;2023-06-19T02:49:57;100398.56;;;14.81;95.00
63654;BME280;49809;47.418;19.080;2023-06-19T02:53:33;100406.56;;;14.81;94.94
63654;BME280;49809;47.418;19.080;2023-06-19T02:56:53;100402.81;;;14.76;94.89
63654;BME280;49809;47.418;19.080;2023-06-19T03:00:28;100414.03;;;14.73;95.06
63654;BME280;49809;47.418;19.080;2023-06-19T03:03:58;100425.50;;;14.74;96.20
63654;BME280;49809;47.418;19.080;2023-06-19T03:07:24;100420.69;;;14.81;96.34
63654;BME280;49809;47.418;19.080;2023-06-19T03:11:10;100416.66;;;14.84;95.95
63654;BME280;49809;47.418;19.080;2023-06-19T03:14:41;100424.09;;;14.87;96.90
63654;BME280;49809;47.418;19.080;2023-06-19T03:18:03;100427.50;;;14.92;96.69
63654;BME280;49809;47.418;19.080;2023-06-19T03:21:53;100427.72;;;15.01;96.44
63654;BME280;49809;47.418;19.080;2023-06-19T03:25:19;100427.44;;;15.02;96.08
63654;BME280;49809;47.418;19.080;2023-06-19T03:29:12;100439.12;;;15.11;96.32
63654;BME280;49809;47.418;19.080;2023-06-19T03:32:44;100437.91;;;15.33;96.02
63654;BME280;49809;47.418;19.080;2023-06-19T03:36:38;100441.47;;;15.57;95.59
63654;BME280;49809;47.418;19.080;2023-06-19T03:40:00;100434.78;;;15.83;94.10
63654;BME280;49809;47.418;19.080;2023-06-19T03:43:38;100432.50;;;16.00;93.10
63654;BME280;49809;47.418;19.080;2023-06-19T03:47:21;100428.19;;;16.04;92.88
63654;BME280;49809;47.418;19.080;2023-06-19T03:50:41;100434.19;;;16.15;92.56
63654;BME280;49809;47.418;19.080;2023-06-19T03:54:02;100433.28;;;16.25;92.73
63654;BME280;49809;47.418;19.080;2023-06-19T03:57:42;100427.88;;;16.30;92.90
63654;BME280;49809;47.418;19.080;2023-06-19T04:01:00;100431.56;;;16.34;92.26
63654;BME280;49809;47.418;19.080;2023-06-19T04:04:31;100438.94;;;16.42;92.14
63654;BME280;49809;47.418;19.080;2023-06-19T04:07:59;100437.22;;;16.51;91.64
63654;BME280;49809;47.418;19.080;2023-06-19T04:11:18;100431.78;;;16.61;91.10
63654;BME280;49809;47.418;19.080;2023-06-19T04:14:53;100437.78;;;16.72;90.20
63654;BME280;49809;47.418;19.080;2023-06-19T04:18:22;100434.69;;;16.83;89.61
63654;BME280;49809;47.418;19.080;2023-06-19T04:21:56;100431.44;;;16.86;89.12
63654;BME280;49809;47.418;19.080;2023-06-19T04:25:39;100430.22;;;16.98;89.06
63654;BME280;49809;47.418;19.080;2023-06-19T04:29:13;100435.34;;;17.13;88.66
63654;BME280;49809;47.418;19.080;2023-06-19T04:32:52;100434.38;;;17.22;88.58
63654;BME280;49809;47.418;19.080;2023-06-19T04:36:37;100438.75;;;17.51;87.67
63654;BME280;49809;47.418;19.080;2023-06-19T04:40:11;100430.75;;;17.64;86.92
63654;BME280;49809;47.418;19.080;2023-06-19T04:43:59;100437.63;;;17.70;87.49
63654;BME280;49809;47.418;19.080;2023-06-19T04:47:48;100437.84;;;17.88;85.31
63654;BME280;49809;47.418;19.080;2023-06-19T04:51:15;100435.56;;;17.95;85.25
63654;BME280;49809;47.418;19.080;2023-06-19T04:54:45;100446.28;;;17.95;83.39
63654;BME280;49809;47.418;19.080;2023-06-19T04:58:37;100448.06;;;17.99;84.13
63654;BME280;49809;47.418;19.080;2023-06-19T05:02:17;100447.19;;;18.04;80.39
63654;BME280;49809;47.418;19.080;2023-06-19T05:05:54;100447.78;;;18.14;80.71
63654;BME280;49809;47.418;19.080;2023-06-19T05:09:45;100448.97;;;18.22;78.52
63654;BME280;49809;47.418;19.080;2023-06-19T05:13:24;100456.63;;;18.29;80.18
63654;BME280;49809;47.418;19.080;2023-06-19T05:17:04;100463.84;;;18.42;79.31
63654;BME280;49809;47.418;19.080;2023-06-19T05:20:39;100463.47;;;18.62;78.14
63654;BME280;49809;47.418;19.080;2023-06-19T05:23:58;100468.19;;;18.79;77.25
63654;BME280;49809;47.418;19.080;2023-06-19T05:27:34;100477.50;;;18.95;77.15
63654;BME280;49809;47.418;19.080;2023-06-19T05:31:04;100480.87;;;19.00;74.71
63654;BME280;49809;47.418;19.080;2023-06-19T05:34:49;100478.19;;;19.00;75.17
63654;BME280;49809;47.418;19.080;2023-06-19T05:38:07;100475.16;;;19.16;74.92
63654;BME280;49809;47.418;19.080;2023-06-19T05:42:02;100476.19;;;19.28;74.82
63654;BME280;49809;47.418;19.080;2023-06-19T05:45:35;100483.91;;;19.43;74.75
63654;BME280;49809;47.418;19.080;2023-06-19T05:49:01;100473.28;;;19.61;73.98
63654;BME280;49809;47.418;19.080;2023-06-19T05:52:39;100471.47;;;19.70;73.13
63654;BME280;49809;47.418;19.080;2023-06-19T05:55:45;100476.59;;;19.80;72.99
63654;BME280;49809;47.418;19.080;2023-06-19T05:58:51;100473.84;;;20.02;71.75
63654;BME280;49809;47.418;19.080;2023-06-19T06:02:20;100484.59;;;20.02;71.57
63654;BME280;49809;47.418;19.080;2023-06-19T06:06:04;100484.91;;;20.31;69.06
63654;BME280;49809;47.418;19.080;2023-06-19T06:09:52;100484.78;;;20.54;70.78
63654;BME280;49809;47.418;19.080;2023-06-19T06:13:20;100490.66;;;20.56;68.67
63654;BME280;49809;47.418;19.080;2023-06-19T06:16:32;100489.13;;;20.72;69.02
63654;BME280;49809;47.418;19.080;2023-06-19T06:20:16;100477.59;;;20.97;67.59
63654;BME280;49809;47.418;19.080;2023-06-19T06:24:08;100489.50;;;21.22;66.41
63654;BME280;49809;47.418;19.080;2023-06-19T06:27:52;100494.72;;;21.44;67.07
63654;BME280;49809;47.418;19.080;2023-06-19T06:31:34;100487.25;;;21.58;66.24
63654;BME280;49809;47.418;19.080;2023-06-19T06:34:41;100487.84;;;21.73;66.63
63654;BME280;49809;47.418;19.080;2023-06-19T06:37:45;100492.03;;;22.08;65.32
63654;BME280;49809;47.418;19.080;2023-06-19T06:40:49;100493.56;;;22.26;63.08
63654;BME280;49809;47.418;19.080;2023-06-19T06:44:45;100496.19;;;22.43;62.55
63654;BME280;49809;47.418;19.080;2023-06-19T06:48:08;100495.44;;;22.64;61.86
63654;BME280;49809;47.418;19.080;2023-06-19T06:51:53;100494.06;;;23.08;60.16
63654;BME280;49809;47.418;19.080;2023-06-19T06:55:17;100500.47;;;23.36;60.52
63654;BME280;49809;47.418;19.080;2023-06-19T06:58:41;100489.31;;;23.58;57.27
63654;BME280;49809;47.418;19.080;2023-06-19T07:01:44;100491.81;;;23.96;57.95
63654;BME280;49809;47.418;19.080;2023-06-19T07:05:09;100501.53;;;24.34;58.97
63654;BME280;49809;47.418;19.080;2023-06-19T07:08:27;100495.31;;;24.82;55.10
63654;BME280;49809;47.418;19.080;2023-06-19T07:11:45;100494.03;;;25.03;55.58
63654;BME280;49809;47.418;19.080;2023-06-19T07:14:54;100489.31;;;25.28;53.17
63654;BME280;49809;47.418;19.080;2023-06-19T07:18:39;100497.00;;;25.26;53.75
63654;BME280;49809;47.418;19.080;2023-06-19T07:22:26;100488.69;;;25.75;50.16
63654;BME280;49809;47.418;19.080;2023-06-19T07:25:30;100483.34;;;25.94;50.60
63654;BME280;49809;47.418;19.080;2023-06-19T07:29:18;100479.06;;;26.24;49.47
63654;BME280;49809;47.418;19.080;2023-06-19T07:32:21;100486.47;;;26.59;50.06
63654;BME280;49809;47.418;19.080;2023-06-19T07:36:07;100485.13;;;27.22;47.71
63654;BME280;49809;47.418;19.080;2023-06-19T07:39:11;100487.00;;;28.25;45.11
63654;BME280;49809;47.418;19.080;2023-06-19T07:42:37;100488.81;;;28.97;42.77
63654;BME280;49809;47.418;19.080;2023-06-19T07:45:41;100486.91;;;30.11;40.47
63654;BME280;49809;47.418;19.080;2023-06-19T07:49:04;100485.56;;;30.35;40.16
63654;BME280;49809;47.418;19.080;2023-06-19T07:52:07;100480.28;;;30.63;37.78
63654;BME280;49809;47.418;19.080;2023-06-19T07:55:37;100480.38;;;30.23;38.52
63654;BME280;49809;47.418;19.080;2023-06-19T07:58:43;100479.91;;;31.59;36.71
63654;BME280;49809;47.418;19.080;2023-06-19T08:01:47;100470.13;;;31.86;35.79
63654;BME280;49809;47.418;19.080;2023-06-19T08:04:50;100474.47;;;32.05;35.24
63654;BME280;49809;47.418;19.080;2023-06-19T08:08:30;100477.19;;;32.29;35.24
63654;BME280;49809;47.418;19.080;2023-06-19T08:11:36;100481.50;;;32.23;33.88
63654;BME280;49809;47.418;19.080;2023-06-19T08:14:40;100474.84;;;32.03;33.80
63654;BME280;49809;47.418;19.080;2023-06-19T08:17:43;100484.56;;;31.55;35.56
63654;BME280;49809;47.418;19.080;2023-06-19T08:20:46;100474.63;;;30.35;37.34
63654;BME280;49809;47.418;19.080;2023-06-19T08:23:50;100473.56;;;30.47;38.23
63654;BME280;49809;47.418;19.080;2023-06-19T08:27:27;100464.94;;;31.17;35.97
63654;BME280;49809;47.418;19.080;2023-06-19T08:30:30;100473.69;;;32.18;34.62
63654;BME280;49809;47.418;19.080;2023-06-19T08:33:36;100468.69;;;33.25;32.97
63654;BME280;49809;47.418;19.080;2023-06-19T08:36:42;100473.38;;;33.28;33.10
63654;BME280;49809;47.418;19.080;2023-06-19T08:39:45;100462.12;;;33.74;31.08
63654;BME280;49809;47.418;19.080;2023-06-19T08:42:48;100473.00;;;33.88;31.67
63654;BME280;49809;47.418;19.080;2023-06-19T08:46:24;100476.41;;;33.41;31.28
63654;BME280;49809;47.418;19.080;2023-06-19T08:49:29;100478.38;;;32.28;33.01
63654;BME280;49809;47.418;19.080;2023-06-19T08:52:33;100479.03;;;32.86;34.15
63654;BME280;49809;47.418;19.080;2023-06-19T08:55:37;100472.47;;;33.45;33.24
63654;BME280;49809;47.418;19.080;2023-06-19T08:58:42;100469.59;;;34.15;30.82
63654;BME280;49809;47.418;19.080;2023-06-19T09:01:52;100463.06;;;34.42;28.08
63654;BME280;49809;47.418;19.080;2023-06-19T09:05:10;100466.44;;;34.20;29.10
63654;BME280;49809;47.418;19.080;2023-06-19T09:08:35;100455.94;;;33.59;31.13
63654;BME280;49809;47.418;19.080;2023-06-19T09:11:39;100462.75;;;34.74;30.15
63654;BME280;49809;47.418;19.080;2023-06-19T09:14:47;100458.28;;;35.95;28.31
63654;BME280;49809;47.418;19.080;2023-06-19T09:18:24;100461.59;;;35.02;28.71
63654;BME280;49809;47.418;19.080;2023-06-19T09:21:27;100463.16;;;35.60;29.33
63654;BME280;49809;47.418;19.080;2023-06-19T09:24:39;100457.56;;;35.10;30.00
63654;BME280;49809;47.418;19.080;2023-06-19T09:27:57;100460.53;;;34.59;27.66
63654;BME280;49809;47.418;19.080;2023-06-19T09:31:02;100459.72;;;35.26;27.08
63654;BME280;49809;47.418;19.080;2023-06-19T09:34:08;100458.19;;;34.20;27.94
63654;BME280;49809;47.418;19.080;2023-06-19T09:37:13;100449.47;;;33.29;29.33
63654;BME280;49809;47.418;19.080;2023-06-19T09:40:17;100452.66;;;34.61;28.21
63654;BME280;49809;47.418;19.080;2023-06-19T09:43:28;100443.22;;;35.26;27.22
63654;BME280;49809;47.418;19.080;2023-06-19T09:46:35;100453.19;;;35.43;25.97
63654;BME280;49809;47.418;19.080;2023-06-19T09:49:49;100458.03;;;34.75;25.95
63654;BME280;49809;47.418;19.080;2023-06-19T09:52:55;100456.91;;;36.06;24.39
63654;BME280;49809;47.418;19.080;2023-06-19T09:55:59;100449.75;;;36.32;24.61
63654;BME280;49809;47.418;19.080;2023-06-19T09:59:25;100443.78;;;34.83;25.62
63654;BME280;49809;47.418;19.080;2023-06-19T10:02:29;100441.84;;;36.93;24.08
63654;BME280;49809;47.418;19.080;2023-06-19T10:05:36;100434.25;;;34.20;26.67
63654;BME280;49809;47.418;19.080;2023-06-19T10:08:41;100436.34;;;36.11;25.56
63654;BME280;49809;47.418;19.080;2023-06-19T10:11:47;100426.31;;;36.01;25.66
63654;BME280;49809;47.418;19.080;2023-06-19T10:14:51;100422.06;;;35.46;25.98
63654;BME280;49809;47.418;19.080;2023-06-19T10:21:15;100423.47;;;36.47;24.74
63654;BME280;49809;47.418;19.080;2023-06-19T10:24:19;100414.75;;;35.86;25.41
63654;BME280;49809;47.418;19.080;2023-06-19T10:27:24;100408.75;;;36.93;24.29
63654;BME280;49809;47.418;19.080;2023-06-19T10:30:28;100408.91;;;37.22;23.36
63654;BME280;49809;47.418;19.080;2023-06-19T10:33:33;100417.75;;;35.95;24.26
63654;BME280;49809;47.418;19.080;2023-06-19T10:36:40;100407.59;;;37.11;24.38
63654;BME280;49809;47.418;19.080;2023-06-19T10:39:43;100405.56;;;35.93;24.36
63654;BME280;49809;47.418;19.080;2023-06-19T10:42:49;100414.06;;;37.20;24.27
63654;BME280;49809;47.418;19.080;2023-06-19T10:45:53;100411.03;;;37.96;22.96
63654;BME280;49809;47.418;19.080;2023-06-19T10:49:00;100398.78;;;38.25;22.57
63654;BME280;49809;47.418;19.080;2023-06-19T10:52:07;100408.62;;;35.25;24.75
63654;BME280;49809;47.418;19.080;2023-06-19T10:55:11;100401.25;;;34.24;26.38
63654;BME280;49809;47.418;19.080;2023-06-19T10:58:20;100413.94;;;36.72;24.52
63654;BME280;49809;47.418;19.080;2023-06-19T11:01:36;100404.13;;;33.69;28.96
63654;BME280;49809;47.418;19.080;2023-06-19T11:04:39;100393.69;;;35.26;25.05
63654;BME280;49809;47.418;19.080;2023-06-19T11:07:44;100401.53;;;34.97;24.45
63654;BME280;49809;47.418;19.080;2023-06-19T11:10:50;100397.75;;;36.74;23.93
63654;BME280;49809;47.418;19.080;2023-06-19T11:13:55;100392.94;;;35.95;23.55
63654;BME280;49809;47.418;19.080;2023-06-19T11:16:59;100394.25;;;35.64;26.25
63654;BME280;49809;47.418;19.080;2023-06-19T11:20:53;100397.91;;;36.04;25.59
63654;BME280;49809;47.418;19.080;2023-06-19T11:24:01;100393.84;;;36.51;25.35
63654;BME280;49809;47.418;19.080;2023-06-19T11:27:13;100389.41;;;37.13;24.13
63654;BME280;49809;47.418;19.080;2023-06-19T11:30:30;100386.00;;;36.50;23.68
63654;BME280;49809;47.418;19.080;2023-06-19T11:33:34;100379.34;;;35.38;24.89
63654;BME280;49809;47.418;19.080;2023-06-19T11:37:17;100380.94;;;35.86;25.09
63654;BME280;49809;47.418;19.080;2023-06-19T11:40:22;100381.12;;;36.18;24.70
63654;BME280;49809;47.418;19.080;2023-06-19T11:43:36;100383.63;;;36.09;24.85
63654;BME280;49809;47.418;19.080;2023-06-19T11:46:45;100366.63;;;36.53;24.28
63654;BME280;49809;47.418;19.080;2023-06-19T11:49:48;100358.31;;;38.19;21.95
63654;BME280;49809;47.418;19.080;2023-06-19T11:52:56;100369.00;;;38.04;22.75
63654;BME280;49809;47.418;19.080;2023-06-19T11:56:02;100369.72;;;38.62;22.32
63654;BME280;49809;47.418;19.080;2023-06-19T11:59:06;100364.19;;;38.75;22.73
63654;BME280;49809;47.418;19.080;2023-06-19T12:02:15;100360.31;;;38.85;21.45
63654;BME280;49809;47.418;19.080;2023-06-19T12:05:42;100356.31;;;38.48;21.30
63654;BME280;49809;47.418;19.080;2023-06-19T12:08:46;100364.97;;;39.39;20.25
63654;BME280;49809;47.418;19.080;2023-06-19T12:11:51;100362.75;;;39.08;21.17
63654;BME280;49809;47.418;19.080;2023-06-19T12:14:54;100360.59;;;37.63;22.43
63654;BME280;49809;47.418;19.080;2023-06-19T12:18:02;100350.50;;;37.24;22.40
63654;BME280;49809;47.418;19.080;2023-06-19T12:21:09;100348.97;;;38.42;22.01
63654;BME280;49809;47.418;19.080;2023-06-19T12:25:16;100357.62;;;38.69;21.99
63654;BME280;49809;47.418;19.080;2023-06-19T12:28:20;100344.12;;;38.46;22.22
63654;BME280;49809;47.418;19.080;2023-06-19T12:31:26;100342.34;;;39.28;20.48
63654;BME280;49809;47.418;19.080;2023-06-19T12:34:29;100338.00;;;38.92;21.38
63654;BME280;49809;47.418;19.080;2023-06-19T12:37:35;100340.72;;;38.80;20.43
63654;BME280;49809;47.418;19.080;2023-06-19T12:40:39;100329.81;;;37.32;21.23
63654;BME280;49809;47.418;19.080;2023-06-19T12:43:43;100329.78;;;39.01;20.94
63654;BME280;49809;47.418;19.080;2023-06-19T12:46:46;100321.56;;;39.36;20.47
63654;BME280;49809;47.418;19.080;2023-06-19T12:49:51;100324.91;;;38.93;21.27
63654;BME280;49809;47.418;19.080;2023-06-19T12:52:54;100321.06;;;37.01;21.91
63654;BME280;49809;47.418;19.080;2023-06-19T12:56:00;100320.16;;;35.50;23.32
63654;BME280;49809;47.418;19.080;2023-06-19T12:59:11;100315.97;;;35.15;23.64
63654;BME280;49809;47.418;19.080;2023-06-19T13:02:14;100305.78;;;35.85;23.54
63654;BME280;49809;47.418;19.080;2023-06-19T13:05:17;100306.31;;;34.19;25.28
63654;BME280;49809;47.418;19.080;2023-06-19T13:08:20;100308.81;;;34.40;26.14
63654;BME280;49809;47.418;19.080;2023-06-19T13:11:26;100304.38;;;33.38;28.13
63654;BME280;49809;47.418;19.080;2023-06-19T13:14:31;100299.31;;;33.77;27.35
63654;BME280;49809;47.418;19.080;2023-06-19T13:17:57;100301.22;;;32.84;27.92
63654;BME280;49809;47.418;19.080;2023-06-19T13:21:02;100298.81;;;33.45;26.81
63654;BME280;49809;47.418;19.080;2023-06-19T13:24:38;100290.06;;;33.57;26.13
63654;BME280;49809;47.418;19.080;2023-06-19T13:27:42;100290.84;;;33.09;26.97
63654;BME280;49809;47.418;19.080;2023-06-19T13:30:46;100293.00;;;33.36;28.68
63654;BME280;49809;47.418;19.080;2023-06-19T13:33:50;100289.81;;;33.41;26.88
63654;BME280;49809;47.418;19.080;2023-06-19T13:46:01;100292.75;;;33.68;27.51
63654;BME280;49809;47.418;19.080;2023-06-19T13:49:08;100285.34;;;32.51;28.03
63654;BME280;49809;47.418;19.080;2023-06-19T13:52:14;100285.06;;;33.00;28.41
63654;BME280;49809;47.418;19.080;2023-06-19T13:55:20;100280.97;;;33.23;27.59
63654;BME280;49809;47.418;19.080;2023-06-19T13:58:24;100293.44;;;32.75;27.89
63654;BME280;49809;47.418;19.080;2023-06-19T14:01:28;100280.63;;;33.17;28.17
63654;BME280;49809;47.418;19.080;2023-06-19T14:04:36;100279.84;;;33.13;27.24
63654;BME280;49809;47.418;19.080;2023-06-19T14:07:40;100282.00;;;32.11;28.30
63654;BME280;49809;47.418;19.080;2023-06-19T14:10:46;100289.62;;;32.52;28.59
63654;BME280;49809;47.418;19.080;2023-06-19T14:13:51;100288.94;;;32.37;28.75
63654;BME280;49809;47.418;19.080;2023-06-19T14:16:56;100280.84;;;31.98;29.57
63654;BME280;49809;47.418;19.080;2023-06-19T14:20:01;100276.47;;;32.22;29.46
63654;BME280;49809;47.418;19.080;2023-06-19T14:23:25;100276.56;;;31.83;29.68
63654;BME280;49809;47.418;19.080;2023-06-19T14:26:28;100275.84;;;31.65;29.13
63654;BME280;49809;47.418;19.080;2023-06-19T14:29:33;100280.53;;;31.75;29.59
63654;BME280;49809;47.418;19.080;2023-06-19T14:32:37;100268.81;;;31.71;29.38
63654;BME280;49809;47.418;19.080;2023-06-19T14:35:42;100271.16;;;31.51;29.36
63654;BME280;49809;47.418;19.080;2023-06-19T14:38:46;100276.22;;;31.52;30.46
63654;BME280;49809;47.418;19.080;2023-06-19T14:41:51;100282.50;;;31.25;30.42
63654;BME280;49809;47.418;19.080;2023-06-19T14:44:55;100277.81;;;31.25;28.95
63654;BME280;49809;47.418;19.080;2023-06-19T14:47:58;100278.59;;;31.08;30.30
63654;BME280;49809;47.418;19.080;2023-06-19T14:51:04;100283.69;;;31.27;31.19
63654;BME280;49809;47.418;19.080;2023-06-19T14:54:09;100274.69;;;31.05;29.68
63654;BME280;49809;47.418;19.080;2023-06-19T14:57:15;100269.97;;;30.88;30.13
63654;BME280;49809;47.418;19.080;2023-06-19T15:00:22;100275.78;;;30.73;31.21
63654;BME280;49809;47.418;19.080;2023-06-19T15:03:30;100273.78;;;30.48;31.33
63654;BME280;49809;47.418;19.080;2023-06-19T15:06:35;100267.16;;;30.53;31.04
63654;BME280;49809;47.418;19.080;2023-06-19T15:09:38;100272.50;;;30.28;31.18
63654;BME280;49809;47.418;19.080;2023-06-19T15:12:46;100274.03;;;30.22;31.38
63654;BME280;49809;47.418;19.080;2023-06-19T15:15:51;100268.25;;;30.34;31.52
63654;BME280;49809;47.418;19.080;2023-06-19T15:18:55;100263.94;;;30.37;31.87
63654;BME280;49809;47.418;19.080;2023-06-19T15:22:00;100261.63;;;30.42;30.81
63654;BME280;49809;47.418;19.080;2023-06-19T15:25:23;100266.25;;;30.31;32.81
63654;BME280;49809;47.418;19.080;2023-06-19T15:28:27;100259.25;;;30.37;31.80
63654;BME280;49809;47.418;19.080;2023-06-19T15:31:30;100269.78;;;30.28;33.05
63654;BME280;49809;47.418;19.080;2023-06-19T15:34:33;100270.03;;;30.02;32.83
63654;BME280;49809;47.418;19.080;2023-06-19T15:37:40;100268.44;;;29.94;32.18
63654;BME280;49809;47.418;19.080;2023-06-19T15:40:46;100261.41;;;29.89;33.46
63654;BME280;49809;47.418;19.080;2023-06-19T15:43:52;100266.81;;;29.82;34.37
63654;BME280;49809;47.418;19.080;2023-06-19T15:47:16;100261.72;;;29.80;33.31
63654;BME280;49809;47.418;19.080;2023-06-19T15:50:22;100263.28;;;29.82;33.60
63654;BME280;49809;47.418;19.080;2023-06-19T15:53:46;100263.09;;;30.15;34.48
63654;BME280;49809;47.418;19.080;2023-06-19T15:56:51;100264.84;;;30.80;33.37
63654;BME280;49809;47.418;19.080;2023-06-19T15:59:55;100262.16;;;31.19;32.50
63654;BME280;49809;47.418;19.080;2023-06-19T16:03:19;100265.69;;;31.44;31.66
63654;BME280;49809;47.418;19.080;2023-06-19T16:06:24;100264.13;;;31.15;31.52
63654;BME280;49809;47.418;19.080;2023-06-19T16:09:31;100257.09;;;31.38;29.77
63654;BME280;49809;47.418;19.080;2023-06-19T16:12:53;100259.06;;;31.41;31.61
63654;BME280;49809;47.418;19.080;2023-06-19T16:15:57;100267.25;;;31.41;30.53
63654;BME280;49809;47.418;19.080;2023-06-19T16:19:00;100261.00;;;31.52;30.85
63654;BME280;49809;47.418;19.080;2023-06-19T16:22:06;100259.06;;;31.31;30.44
63654;BME280;49809;47.418;19.080;2023-06-19T16:25:09;100265.69;;;31.05;31.14
63654;BME280;49809;47.418;19.080;2023-06-19T16:28:13;100261.00;;;31.16;31.05
63654;BME280;49809;47.418;19.080;2023-06-19T16:31:17;100268.81;;;31.14;31.84
63654;BME280;49809;47.418;19.080;2023-06-19T16:34:22;100256.31;;;31.13;33.02
63654;BME280;49809;47.418;19.080;2023-06-19T16:37:25;100265.69;;;31.08;33.66
63654;BME280;49809;47.418;19.080;2023-06-19T16:40:38;100266.44;;;30.88;34.38
63654;BME280;49809;47.418;19.080;2023-06-19T16:43:41;100251.94;;;30.62;34.52
63654;BME280;49809;47.418;19.080;2023-06-19T16:46:46;100263.19;;;30.43;35.40
63654;BME280;49809;47.418;19.080;2023-06-19T16:49:49;100265.34;;;29.95;36.14
63654;BME280;49809;47.418;19.080;2023-06-19T16:52:54;100272.19;;;29.71;36.17
63654;BME280;49809;47.418;19.080;2023-06-19T16:55:58;100272.78;;;29.44;36.54
63654;BME280;49809;47.418;19.080;2023-06-19T16:59:04;100272.38;;;29.38;36.74
63654;BME280;49809;47.418;19.080;2023-06-19T17:02:32;100264.94;;;29.35;36.11
63654;BME280;49809;47.418;19.080;2023-06-19T17:05:38;100268.72;;;29.27;37.18
63654;BME280;49809;47.418;19.080;2023-06-19T17:08:43;100271.94;;;29.36;37.78
63654;BME280;49809;47.418;19.080;2023-06-19T17:11:48;100272.62;;;29.29;37.91
63654;BME280;49809;47.418;19.080;2023-06-19T17:14:52;100268.66;;;29.20;37.65